Time;durP1;ratioP1;P1;durP2;ratioP2;P2;SDS_P1;SDS_P2;PMS_P1;PMS_P2;Temp;Humidity;BMP_temperature;BMP_pressure;BME280_temperature;BME280_humidity;BME280_pressure;Samples;Min_cycle;Max_cycle;Signal;HPM_P1;HPM_P2
2023/03/03 00:00:02;;;;;;;1.52;1.23;;;;;;;;;;4976519;28;20054;-62
2023/03/03 00:02:28;;;;;;;1.67;1.20;;;;;;;;;;4976850;28;20058;-62
2023/03/03 00:04:55;;;;;;;3.75;1.20;;;;;;;;;;4976969;28;20031;-62
2023/03/03 00:07:22;;;;;;;6.05;1.48;;;;;;;;;;4972444;28;20043;-62
2023/03/03 00:09:49;;;;;;;2.13;0.95;;;;;;;;;;4971855;28;20440;-62
2023/03/03 00:12:22;;;;;;;4.05;1.08;;;;;;;;;;4971557;28;20042;-62
2023/03/03 00:14:48;;;;;;;1.58;1.02;;;;;;;;;;4970090;28;20034;-62
2023/03/03 00:17:21;;;;;;;8.75;1.35;;;;;;;;;;4974784;28;20038;-62
2023/03/03 00:19:48;;;;;;;9.32;1.30;;;;;;;;;;4975725;28;20038;-62
2023/03/03 00:22:22;;;;;;;2.45;1.20;;;;;;;;;;4976527;28;20039;-62
2023/03/03 00:24:49;;;;;;;2.97;1.40;;;;;;;;;;4976261;28;20026;-62
2023/03/03 00:27:39;;;;;;;3.90;1.58;;;;;;;;;;4976560;28;20058;-62
2023/03/03 00:30:17;;;;;;;1.70;1.05;;;;;;;;;;4964175;28;20035;-62
2023/03/03 00:32:49;;;;;;;26.35;2.33;;;;;;;;;;4970910;28;20039;-62
2023/03/03 00:35:37;;;;;;;4.57;1.58;;;;;;;;;;4971171;28;20035;-62
2023/03/03 00:38:24;;;;;;;9.65;1.50;;;;;;;;;;4971087;28;20037;-62
2023/03/03 00:40:50;;;;;;;10.40;2.35;;;;;;;;;;4975669;28;20026;-62
2023/03/03 00:43:17;;;;;;;5.47;1.90;;;;;;;;;;4976393;28;20023;-62
2023/03/03 00:45:44;;;;;;;2.70;1.42;;;;;;;;;;4976251;28;20034;-62
2023/03/03 00:48:20;;;;;;;1.73;1.25;;;;;;;;;;4975553;28;20037;-62
2023/03/03 00:50:47;;;;;;;2.63;1.48;;;;;;;;;;4973225;28;20090;-63
2023/03/03 00:53:17;;;;;;;3.65;1.45;;;;;;;;;;4970776;28;20027;-62
2023/03/03 00:55:45;;;;;;;3.67;1.50;;;;;;;;;;4970811;28;20057;-61
2023/03/03 00:58:12;;;;;;;1.80;1.40;;;;;;;;;;4970866;28;20496;-62
2023/03/03 01:00:39;;;;;;;3.63;1.50;;;;;;;;;;4970482;28;20035;-62
2023/03/03 01:03:08;;;;;;;2.53;1.30;;;;;;;;;;4975792;28;20493;-62
2023/03/03 01:05:35;;;;;;;2.83;1.13;;;;;;;;;;4956663;28;20055;-62
2023/03/03 01:08:03;;;;;;;5.07;1.57;;;;;;;;;;4956395;28;20020;-62
2023/03/03 01:10:32;;;;;;;1.47;1.00;;;;;;;;;;4956055;29;20035;-62
2023/03/03 01:12:59;;;;;;;4.53;1.50;;;;;;;;;;4955862;29;20031;-62
2023/03/03 01:15:28;;;;;;;1.17;0.90;;;;;;;;;;4951252;28;20479;-62
2023/03/03 01:17:55;;;;;;;4.27;1.40;;;;;;;;;;4968699;28;20027;-63
2023/03/03 01:20:22;;;;;;;2.53;1.27;;;;;;;;;;4970500;28;20035;-62
2023/03/03 01:22:49;;;;;;;3.77;1.47;;;;;;;;;;4970635;28;21189;-62
2023/03/03 01:25:16;;;;;;;4.00;1.33;;;;;;;;;;4975000;28;20023;-62
2023/03/03 01:27:42;;;;;;;2.00;1.27;;;;;;;;;;4975178;28;20030;-62
2023/03/03 01:30:09;;;;;;;3.40;1.30;;;;;;;;;;4975448;28;20510;-62
2023/03/03 01:32:36;;;;;;;5.30;1.53;;;;;;;;;;4975138;28;20597;-63
2023/03/03 01:35:03;;;;;;;9.93;1.37;;;;;;;;;;4974953;28;20030;-62
2023/03/03 01:37:30;;;;;;;2.40;1.10;;;;;;;;;;4969388;28;20078;-62
2023/03/03 01:39:56;;;;;;;1.33;0.80;;;;;;;;;;4970159;28;20030;-62
2023/03/03 01:42:27;;;;;;;1.30;1.00;;;;;;;;;;4968209;28;20470;-61
2023/03/03 01:45:14;;;;;;;3.40;1.23;;;;;;;;;;4951612;28;20031;-60
2023/03/03 01:47:43;;;;;;;1.97;1.13;;;;;;;;;;4974244;28;20486;-61
2023/03/03 01:50:12;;;;;;;2.77;1.20;;;;;;;;;;4975053;28;20030;-60
2023/03/03 01:52:44;;;;;;;1.90;1.10;;;;;;;;;;4974939;28;20597;-62
2023/03/03 01:55:16;;;;;;;6.43;1.80;;;;;;;;;;4974820;28;20051;-60
2023/03/03 01:57:45;;;;;;;1.53;1.03;;;;;;;;;;4961788;28;20035;-61
2023/03/03 02:00:12;;;;;;;10.77;1.43;;;;;;;;;;4957919;28;20070;-61
2023/03/03 02:02:40;;;;;;;5.83;1.67;;;;;;;;;;4961539;28;20109;-61
2023/03/03 02:05:07;;;;;;;1.90;1.20;;;;;;;;;;4960758;28;20050;-60
2023/03/03 02:07:35;;;;;;;5.03;1.47;;;;;;;;;;4961486;28;20041;-61
2023/03/03 02:10:15;;;;;;;1.90;1.10;;;;;;;;;;4973888;28;20062;-61
2023/03/03 02:12:43;;;;;;;1.97;1.10;;;;;;;;;;4974594;28;20038;-61
2023/03/03 02:15:16;;;;;;;3.37;1.03;;;;;;;;;;4972639;28;20082;-61
2023/03/03 02:17:43;;;;;;;1.43;1.10;;;;;;;;;;4967394;28;20031;-61
2023/03/03 02:20:14;;;;;;;2.20;1.47;;;;;;;;;;4966715;28;20109;-61
2023/03/03 02:22:40;;;;;;;2.90;1.40;;;;;;;;;;4955064;28;20031;-61
2023/03/03 02:25:11;;;;;;;2.57;1.17;;;;;;;;;;4962901;28;20054;-60
2023/03/03 02:27:38;;;;;;;1.80;1.03;;;;;;;;;;4958896;28;20122;-61
2023/03/03 02:30:19;;;;;;;2.97;1.20;;;;;;;;;;4959901;28;20042;-61
2023/03/03 02:32:45;;;;;;;1.77;1.10;;;;;;;;;;4958901;28;20491;-61
2023/03/03 02:35:30;;;;;;;0.93;0.70;;;;;;;;;;4954930;28;20402;-61
2023/03/03 02:37:57;;;;;;;;;;;;;;;;;;4955261;28;20114;-61
2023/03/03 02:40:26;;;;;;;1.70;1.00;;;;;;;;;;4955138;28;19969;-61
2023/03/03 02:42:53;;;;;;;7.67;1.50;;;;;;;;;;4953411;28;20457;-61
2023/03/03 02:45:20;;;;;;;1.60;1.20;;;;;;;;;;4949792;28;20027;-61
2023/03/03 02:47:50;;;;;;;1.53;0.97;;;;;;;;;;4949726;28;20027;-61
2023/03/03 02:50:17;;;;;;;2.53;1.20;;;;;;;;;;4948963;28;20378;-61
2023/03/03 02:52:44;;;;;;;0.83;0.73;;;;;;;;;;4950280;28;20039;-61
2023/03/03 02:55:10;;;;;;;2.63;1.17;;;;;;;;;;4968349;28;20035;-61
2023/03/03 02:57:37;;;;;;;2.07;1.00;;;;;;;;;;4961157;28;20035;-62
2023/03/03 03:00:05;;;;;;;2.77;1.30;;;;;;;;;;4971063;28;20023;-62
2023/03/03 03:02:31;;;;;;;17.00;1.77;;;;;;;;;;4954441;29;20027;-62
2023/03/03 03:04:58;;;;;;;2.23;1.53;;;;;;;;;;4961695;28;20065;-61
2023/03/03 03:07:25;;;;;;;2.97;1.37;;;;;;;;;;4968539;28;20025;-61
2023/03/03 03:09:51;;;;;;;7.00;1.93;;;;;;;;;;4968480;28;20109;-62
2023/03/03 03:12:20;;;;;;;2.10;1.10;;;;;;;;;;4968592;28;20094;-62
2023/03/03 03:14:47;;;;;;;8.10;1.43;;;;;;;;;;4950131;28;20033;-62
2023/03/03 03:17:13;;;;;;;3.60;1.33;;;;;;;;;;4958020;28;20465;-61
2023/03/03 03:19:40;;;;;;;6.20;1.63;;;;;;;;;;4968160;28;20037;-61
2023/03/03 03:22:07;;;;;;;1.77;1.10;;;;;;;;;;4972450;28;20027;-61
2023/03/03 03:24:33;;;;;;;2.00;1.37;;;;;;;;;;4954079;28;20106;-62
2023/03/03 03:27:00;;;;;;;4.77;2.37;;;;;;;;;;4953912;28;20032;-61
2023/03/03 03:29:26;;;;;;;5.33;1.83;;;;;;;;;;4952225;28;20031;-63
2023/03/03 03:31:53;;;;;;;5.37;1.50;;;;;;;;;;4967504;28;20458;-62
2023/03/03 03:34:20;;;;;;;2.70;1.20;;;;;;;;;;4968448;28;20132;-62
2023/03/03 03:36:47;;;;;;;6.27;1.90;;;;;;;;;;4967578;28;20043;-63
2023/03/03 03:39:13;;;;;;;1.93;0.97;;;;;;;;;;4972041;28;20482;-63
2023/03/03 03:41:40;;;;;;;2.53;1.30;;;;;;;;;;4973263;28;20378;-63
2023/03/03 03:44:07;;;;;;;6.80;1.87;;;;;;;;;;4972757;28;20059;-64
2023/03/03 03:46:34;;;;;;;9.00;2.10;;;;;;;;;;4973589;28;20473;-62
2023/03/03 03:49:00;;;;;;;6.70;1.80;;;;;;;;;;4973309;28;20030;-62
2023/03/03 03:51:27;;;;;;;1.63;1.00;;;;;;;;;;4968893;28;20038;-62
2023/03/03 03:53:54;;;;;;;4.53;1.40;;;;;;;;;;4968309;28;20027;-62
2023/03/03 03:56:24;;;;;;;1.93;1.33;;;;;;;;;;4968089;28;20470;-62
2023/03/03 03:58:51;;;;;;;1.97;1.03;;;;;;;;;;4968181;28;20026;-62
2023/03/03 04:01:18;;;;;;;1.83;1.20;;;;;;;;;;4971431;28;20029;-63
2023/03/03 04:03:44;;;;;;;3.60;1.73;;;;;;;;;;4972672;28;20025;-63
2023/03/03 04:06:11;;;;;;;2.50;1.50;;;;;;;;;;4957440;28;20034;-62
2023/03/03 04:08:40;;;;;;;2.77;1.50;;;;;;;;;;4953943;28;20031;-62
2023/03/03 04:11:07;;;;;;;7.67;2.27;;;;;;;;;;4965764;28;20397;-62
2023/03/03 04:13:34;;;;;;;3.63;1.63;;;;;;;;;;4969022;28;20498;-61
2023/03/03 04:16:02;;;;;;;2.33;1.30;;;;;;;;;;4967686;28;20042;-62
2023/03/03 04:18:29;;;;;;;3.70;1.47;;;;;;;;;;4967864;28;20109;-62
2023/03/03 04:20:56;;;;;;;5.90;1.70;;;;;;;;;;4972512;28;20027;-62
2023/03/03 04:23:22;;;;;;;1.67;1.13;;;;;;;;;;4976771;28;20038;-62
2023/03/03 04:25:49;;;;;;;3.43;1.70;;;;;;;;;;4989094;28;20478;-63
2023/03/03 04:28:17;;;;;;;5.97;2.13;;;;;;;;;;4994745;28;20026;-61
2023/03/03 04:30:44;;;;;;;3.57;2.20;;;;;;;;;;4976576;28;20026;-62
2023/03/03 04:33:10;;;;;;;2.57;1.67;;;;;;;;;;4975976;28;20544;-62
2023/03/03 04:35:37;;;;;;;5.97;1.73;;;;;;;;;;4973723;28;20138;-61
2023/03/03 04:38:07;;;;;;;1.90;1.17;;;;;;;;;;4982223;28;20074;-61
2023/03/03 04:40:34;;;;;;;2.27;1.43;;;;;;;;;;4990800;28;20026;-61
2023/03/03 04:43:00;;;;;;;3.80;1.83;;;;;;;;;;4990655;28;20022;-63
2023/03/03 04:45:27;;;;;;;11.77;2.13;;;;;;;;;;4992653;28;20026;-62
2023/03/03 04:47:54;;;;;;;0.80;0.70;;;;;;;;;;4984386;28;20043;-61
2023/03/03 04:50:20;;;;;;;13.57;1.57;;;;;;;;;;4976018;28;20501;-63
2023/03/03 04:52:47;;;;;;;4.27;1.97;;;;;;;;;;4976104;28;20047;-61
2023/03/03 04:55:15;;;;;;;4.70;1.47;;;;;;;;;;4987625;28;20109;-61
2023/03/03 04:57:42;;;;;;;1.30;0.87;;;;;;;;;;4993564;28;20389;-62
2023/03/03 05:00:11;;;;;;;1.90;1.33;;;;;;;;;;4987284;28;20057;-61
2023/03/03 05:02:39;;;;;;;11.13;1.20;;;;;;;;;;4970729;28;20034;-62
2023/03/03 05:05:06;;;;;;;6.73;2.00;;;;;;;;;;4970860;28;20050;-61
2023/03/03 05:07:33;;;;;;;2.17;0.60;;;;;;;;;;4971661;28;20023;-61
2023/03/03 05:09:59;;;;;;;2.97;1.70;;;;;;;;;;4975618;28;20470;-61
2023/03/03 05:12:27;;;;;;;2.03;1.07;;;;;;;;;;4975660;28;20117;-61
2023/03/03 05:14:54;;;;;;;2.00;1.17;;;;;;;;;;4975750;28;20111;-61
2023/03/03 05:17:20;;;;;;;3.13;1.70;;;;;;;;;;4975702;28;20033;-61
2023/03/03 05:19:47;;;;;;;6.20;1.57;;;;;;;;;;4974710;28;20065;-61
2023/03/03 05:22:14;;;;;;;0.70;0.60;;;;;;;;;;4969652;28;20062;-61
2023/03/03 05:24:41;;;;;;;18.00;1.63;;;;;;;;;;4970242;28;20082;-61
2023/03/03 05:27:10;;;;;;;1.90;1.17;;;;;;;;;;4970310;28;20099;-61
2023/03/03 05:29:37;;;;;;;10.93;1.00;;;;;;;;;;4970524;28;20035;-61
2023/03/03 05:32:03;;;;;;;3.40;0.97;;;;;;;;;;4975477;28;20039;-61
2023/03/03 05:34:33;;;;;;;4.37;1.37;;;;;;;;;;4975973;28;20019;-61
2023/03/03 05:37:00;;;;;;;1.87;1.37;;;;;;;;;;4974929;28;20050;-61
2023/03/03 05:39:26;;;;;;;3.97;1.93;;;;;;;;;;4975501;28;20034;-61
2023/03/03 05:41:54;;;;;;;1.83;1.03;;;;;;;;;;4975153;28;20078;-61
2023/03/03 05:44:21;;;;;;;3.03;1.57;;;;;;;;;;4974754;28;20421;-61
2023/03/03 05:46:48;;;;;;;2.20;1.00;;;;;;;;;;4975093;28;20386;-61
2023/03/03 05:49:14;;;;;;;1.73;1.23;;;;;;;;;;4970155;28;20023;-61
2023/03/03 05:51:41;;;;;;;3.53;1.90;;;;;;;;;;4969607;28;20045;-61
2023/03/03 05:54:08;;;;;;;5.13;2.40;;;;;;;;;;4969832;28;20023;-61
2023/03/03 05:56:37;;;;;;;2.27;1.33;;;;;;;;;;4969566;28;20058;-61
2023/03/03 05:59:04;;;;;;;1.97;1.40;;;;;;;;;;4973450;28;20051;-61
2023/03/03 06:01:31;;;;;;;2.40;1.40;;;;;;;;;;4974734;28;20516;-61
2023/03/03 06:03:58;;;;;;;2.07;1.10;;;;;;;;;;4974297;28;20034;-61
2023/03/03 06:06:25;;;;;;;4.10;1.47;;;;;;;;;;4974238;28;20023;-61
2023/03/03 06:08:52;;;;;;;2.03;1.03;;;;;;;;;;4974716;28;20381;-61
2023/03/03 06:11:19;;;;;;;3.30;1.37;;;;;;;;;;4970445;28;20039;-61
2023/03/03 06:13:46;;;;;;;1.57;0.93;;;;;;;;;;4968995;28;20085;-61
2023/03/03 06:16:12;;;;;;;1.53;1.10;;;;;;;;;;4969418;28;20023;-61
2023/03/03 06:18:39;;;;;;;4.50;1.20;;;;;;;;;;4969222;28;20403;-61
2023/03/03 06:21:06;;;;;;;1.13;0.60;;;;;;;;;;4972308;28;20023;-61
2023/03/03 06:23:35;;;;;;;3.50;1.27;;;;;;;;;;4973756;28;20057;-61
2023/03/03 06:26:02;;;;;;;1.57;1.17;;;;;;;;;;4974498;28;20076;-61
2023/03/03 06:28:28;;;;;;;0.83;0.73;;;;;;;;;;4974687;28;20366;-61
2023/03/03 06:30:56;;;;;;;1.33;0.87;;;;;;;;;;4974325;28;20428;-61
2023/03/03 06:33:23;;;;;;;3.47;1.27;;;;;;;;;;4970445;28;20062;-61
2023/03/03 06:35:50;;;;;;;0.73;0.60;;;;;;;;;;4968967;28;20074;-61
2023/03/03 06:38:17;;;;;;;1.67;1.20;;;;;;;;;;4968834;28;20114;-61
2023/03/03 06:40:44;;;;;;;1.07;0.97;;;;;;;;;;4968736;28;20106;-61
2023/03/03 06:43:11;;;;;;;6.97;1.80;;;;;;;;;;4971119;28;20027;-61
2023/03/03 06:45:39;;;;;;;2.73;1.60;;;;;;;;;;4974089;28;20045;-62
2023/03/03 06:48:05;;;;;;;2.57;1.30;;;;;;;;;;4973937;28;20031;-61
2023/03/03 06:50:32;;;;;;;1.87;1.43;;;;;;;;;;4973352;28;20541;-62
2023/03/03 06:53:07;;;;;;;3.97;2.00;;;;;;;;;;4973910;28;20045;-61
2023/03/03 06:55:34;;;;;;;3.30;1.93;;;;;;;;;;4970776;28;20066;-61
2023/03/03 06:58:01;;;;;;;4.13;1.70;;;;;;;;;;4968443;28;20097;-61
2023/03/03 07:00:48;;;;;;;0.73;0.70;;;;;;;;;;4968543;28;20039;-61
2023/03/03 07:03:16;;;;;;;1.03;0.97;;;;;;;;;;4967735;28;20071;-61
2023/03/03 07:05:42;;;;;;;12.00;2.17;;;;;;;;;;4971345;28;20027;-61
2023/03/03 07:08:17;;;;;;;3.17;1.20;;;;;;;;;;4973433;28;20363;-62
2023/03/03 07:10:44;;;;;;;8.02;1.65;;;;;;;;;;4973777;28;20031;-61
2023/03/03 07:13:17;;;;;;;1.70;1.27;;;;;;;;;;4973640;28;20034;-61
2023/03/03 07:15:43;;;;;;;1.10;0.83;;;;;;;;;;4973622;28;20022;-61
2023/03/03 07:18:25;;;;;;;1.13;0.90;;;;;;;;;;4969922;28;20058;-61
2023/03/03 07:20:52;;;;;;;2.20;1.23;;;;;;;;;;4968275;28;20537;-61
2023/03/03 07:23:23;;;;;;;1.23;0.93;;;;;;;;;;4968365;28;20544;-61
2023/03/03 07:25:50;;;;;;;3.20;1.37;;;;;;;;;;4968228;28;20042;-61
2023/03/03 07:28:23;;;;;;;2.23;1.10;;;;;;;;;;4971606;28;20035;-61
2023/03/03 07:30:50;;;;;;;1.13;0.90;;;;;;;;;;4973374;28;20026;-61
2023/03/03 07:33:24;;;;;;;1.13;0.93;;;;;;;;;;4973439;28;20038;-61
2023/03/03 07:35:51;;;;;;;1.83;1.40;;;;;;;;;;4973455;28;20077;-61
2023/03/03 07:38:36;;;;;;;3.47;2.13;;;;;;;;;;4973368;28;20035;-61
2023/03/03 07:41:04;;;;;;;2.15;1.45;;;;;;;;;;4968429;28;20101;-61
2023/03/03 07:43:34;;;;;;;5.47;1.90;;;;;;;;;;4968058;28;20046;-61
2023/03/03 07:46:24;;;;;;;5.63;1.87;;;;;;;;;;4968205;28;20034;-61
2023/03/03 07:48:51;;;;;;;1.03;0.93;;;;;;;;;;4960273;28;20656;-61
2023/03/03 07:51:24;;;;;;;0.93;0.73;;;;;;;;;;4973012;28;20019;-61
2023/03/03 07:53:51;;;;;;;0.63;0.60;;;;;;;;;;4973225;28;20015;-61
2023/03/03 07:56:26;;;;;;;3.63;1.53;;;;;;;;;;4973230;28;20035;-61
2023/03/03 07:58:54;;;;;;;0.73;0.67;;;;;;;;;;4973355;28;20023;-61
2023/03/03 08:01:41;;;;;;;2.27;1.27;;;;;;;;;;4975443;28;20023;-61
2023/03/03 08:04:19;;;;;;;1.50;1.10;;;;;;;;;;4971701;28;20034;-61
2023/03/03 08:06:53;;;;;;;2.40;1.07;;;;;;;;;;4971769;28;20026;-61
2023/03/03 08:09:20;;;;;;;7.80;1.90;;;;;;;;;;4971745;28;20038;-61
2023/03/03 08:11:49;;;;;;;1.50;0.90;;;;;;;;;;4972449;28;20027;-61
2023/03/03 08:14:18;;;;;;;9.10;2.07;;;;;;;;;;4976691;28;20027;-60
2023/03/03 08:16:45;;;;;;;1.43;0.97;;;;;;;;;;4976209;28;20470;-61
2023/03/03 08:19:13;;;;;;;2.87;2.03;;;;;;;;;;4976924;28;20035;-61
2023/03/03 08:21:40;;;;;;;1.77;1.30;;;;;;;;;;4976709;28;20027;-61
2023/03/03 08:24:07;;;;;;;4.67;1.60;;;;;;;;;;4975243;28;20038;-61
2023/03/03 08:26:34;;;;;;;4.57;1.77;;;;;;;;;;4971337;28;20117;-61
2023/03/03 08:29:00;;;;;;;4.03;2.13;;;;;;;;;;4971431;28;20418;-61
2023/03/03 08:31:28;;;;;;;1.03;0.70;;;;;;;;;;4971361;28;20031;-61
2023/03/03 08:33:55;;;;;;;1.33;1.13;;;;;;;;;;4971023;28;20031;-61
2023/03/03 08:36:21;;;;;;;2.93;1.93;;;;;;;;;;4976703;28;20335;-61
2023/03/03 08:38:48;;;;;;;3.53;1.77;;;;;;;;;;4976094;28;21291;-61
2023/03/03 08:41:15;;;;;;;2.43;1.23;;;;;;;;;;4976362;28;20023;-61
2023/03/03 08:43:44;;;;;;;1.43;0.87;;;;;;;;;;4976314;28;20019;-61
2023/03/03 08:46:10;;;;;;;5.57;1.87;;;;;;;;;;4975509;28;20485;-61
2023/03/03 08:48:38;;;;;;;1.80;1.00;;;;;;;;;;4971049;28;20054;-61
2023/03/03 08:51:05;;;;;;;3.33;1.97;;;;;;;;;;4970618;28;20027;-61
2023/03/03 08:53:35;;;;;;;2.90;1.23;;;;;;;;;;4971076;28;20023;-61
2023/03/03 08:56:02;;;;;;;3.73;1.80;;;;;;;;;;4970781;28;20477;-61
2023/03/03 08:58:28;;;;;;;4.47;1.40;;;;;;;;;;4975959;28;20212;-61
2023/03/03 09:00:57;;;;;;;1.80;1.23;;;;;;;;;;4976107;28;20090;-61
2023/03/03 09:03:24;;;;;;;2.17;1.13;;;;;;;;;;4975878;28;20018;-61
2023/03/03 09:05:51;;;;;;;1.87;1.10;;;;;;;;;;4975498;28;20030;-61
2023/03/03 09:08:17;;;;;;;3.77;1.63;;;;;;;;;;4975578;28;20042;-61
2023/03/03 09:10:44;;;;;;;2.97;0.93;;;;;;;;;;4970091;28;20062;-61
2023/03/03 09:13:15;;;;;;;1.87;1.07;;;;;;;;;;4969955;28;20030;-61
2023/03/03 09:15:43;;;;;;;1.07;0.93;;;;;;;;;;4970618;28;20643;-61
2023/03/03 09:18:15;;;;;;;7.40;1.37;;;;;;;;;;4970416;28;20027;-61
2023/03/03 09:20:44;;;;;;;2.80;1.43;;;;;;;;;;4975309;28;20031;-61
2023/03/03 09:23:29;;;;;;;5.37;1.20;;;;;;;;;;4975649;28;20031;-61
2023/03/03 09:25:56;;;;;;;;;;;;;;;;;;4975990;28;20033;-61
2023/03/03 09:28:27;;;;;;;1.97;0.73;;;;;;;;;;4975680;28;19909;-61
2023/03/03 09:30:56;;;;;;;1.13;0.90;;;;;;;;;;4973616;28;20047;-61
2023/03/03 09:33:40;;;;;;;1.87;1.17;;;;;;;;;;4970328;28;20061;-61
2023/03/03 09:36:12;;;;;;;3.23;1.33;;;;;;;;;;4970354;28;20026;-61
2023/03/03 09:38:42;;;;;;;0.83;0.63;;;;;;;;;;4970014;28;20038;-61
2023/03/03 09:41:27;;;;;;;1.77;1.13;;;;;;;;;;4971139;28;20026;-61
2023/03/03 09:44:15;;;;;;;1.60;1.10;;;;;;;;;;4974867;28;20022;-61
2023/03/03 09:46:42;;;;;;;7.67;0.80;;;;;;;;;;4975218;28;20536;-60
2023/03/03 09:49:29;;;;;;;1.70;1.00;;;;;;;;;;4974943;28;20377;-61
2023/03/03 09:52:12;;;;;;;4.67;2.00;;;;;;;;;;4975443;28;20070;-61
2023/03/03 09:54:54;;;;;;;2.30;1.20;;;;;;;;;;4951811;28;20024;-61
2023/03/03 09:57:25;;;;;;;1.80;1.37;;;;;;;;;;4950666;28;20029;-61
2023/03/03 10:00:18;;;;;;;0.93;0.80;;;;;;;;;;4950451;28;20426;-61
2023/03/03 10:03:00;;;;;;;1.77;1.20;;;;;;;;;;4950292;28;20498;-61
2023/03/03 10:05:27;;;;;;;2.83;1.70;;;;;;;;;;4955329;29;20027;-61
2023/03/03 10:08:12;;;;;;;1.53;1.33;;;;;;;;;;4955532;28;20019;-61
2023/03/03 10:11:11;;;;;;;4.90;1.70;;;;;;;;;;4955402;28;20086;-61
2023/03/03 10:13:56;;;;;;;1.87;1.30;;;;;;;;;;4923253;28;20043;-61
2023/03/03 10:16:41;;;;;;;2.50;1.45;;;;;;;;;;4966670;28;20105;-61
2023/03/03 10:19:08;;;;;;;2.00;1.25;;;;;;;;;;4969546;28;20023;-60
2023/03/03 10:21:40;;;;;;;15.17;1.13;;;;;;;;;;4969130;28;20121;-61
2023/03/03 10:24:27;;;;;;;1.63;1.23;;;;;;;;;;4968414;28;20033;-61
2023/03/03 10:27:03;;;;;;;3.07;1.30;;;;;;;;;;4972490;28;20070;-61
2023/03/03 10:29:59;;;;;;;2.40;1.40;;;;;;;;;;4974344;28;20037;-61
2023/03/03 10:32:25;;;;;;;;;;;;;;;;;;4962038;28;20418;-61
2023/03/03 10:34:55;;;;;;;1.60;1.27;;;;;;;;;;4974135;28;20345;-61
2023/03/03 10:37:33;;;;;;;2.97;1.93;;;;;;;;;;4973960;28;20078;-61
2023/03/03 10:40:00;;;;;;;1.80;1.50;;;;;;;;;;4968966;28;20390;-61
2023/03/03 10:42:36;;;;;;;1.43;1.30;;;;;;;;;;4968955;28;20616;-61
2023/03/03 10:45:03;;;;;;;4.00;1.53;;;;;;;;;;4969078;28;20077;-61
2023/03/03 10:47:35;;;;;;;1.50;1.00;;;;;;;;;;4968657;28;20385;-61
2023/03/03 10:50:08;;;;;;;1.53;0.97;;;;;;;;;;4974008;28;20459;-61
2023/03/03 10:52:42;;;;;;;3.63;1.50;;;;;;;;;;4973610;28;20038;-61
2023/03/03 10:55:09;;;;;;;1.58;1.27;;;;;;;;;;4973924;28;20586;-61
2023/03/03 10:57:36;;;;;;;6.47;2.00;;;;;;;;;;4974005;28;20482;-61
2023/03/03 11:00:18;;;;;;;2.40;1.37;;;;;;;;;;4972093;28;20268;-61
2023/03/03 11:02:47;;;;;;;1.97;1.47;;;;;;;;;;4968530;28;20258;-61
2023/03/03 11:05:22;;;;;;;0.73;0.70;;;;;;;;;;4968285;28;20615;-61
2023/03/03 11:07:49;;;;;;;;;;;;;;;;;;4968989;28;20261;-61
2023/03/03 11:10:18;;;;;;;1.07;0.80;;;;;;;;;;4969185;28;19989;-61
2023/03/03 11:12:48;;;;;;;1.03;0.90;;;;;;;;;;4973614;28;20790;-61
2023/03/03 11:15:17;;;;;;;0.87;0.80;;;;;;;;;;4974072;28;20584;-61
2023/03/03 11:17:46;;;;;;;2.60;1.53;;;;;;;;;;4973610;28;20351;-62
2023/03/03 11:20:31;;;;;;;1.67;1.20;;;;;;;;;;4973416;28;20770;-61
2023/03/03 11:22:58;;;;;;;3.23;1.77;;;;;;;;;;4971208;28;20348;-61
2023/03/03 11:25:25;;;;;;;3.27;1.80;;;;;;;;;;4968121;28;20763;-63
2023/03/03 11:28:08;;;;;;;1.80;1.47;;;;;;;;;;4968063;28;20253;-61
2023/03/03 11:30:37;;;;;;;3.83;1.03;;;;;;;;;;4968155;28;20807;-60
2023/03/03 11:33:12;;;;;;;2.33;1.17;;;;;;;;;;4970065;28;20428;-61
2023/03/03 11:35:57;;;;;;;2.05;1.33;;;;;;;;;;4976433;28;20850;-62
2023/03/03 11:38:30;;;;;;;3.97;1.77;;;;;;;;;;4979891;28;20027;-60
2023/03/03 11:41:15;;;;;;;2.43;1.43;;;;;;;;;;4979994;28;20557;-61
2023/03/03 11:43:47;;;;;;;1.42;0.95;;;;;;;;;;4979679;28;20731;-60
2023/03/03 11:46:18;;;;;;;2.43;1.53;;;;;;;;;;4975351;28;20382;-61
2023/03/03 11:48:53;;;;;;;2.00;1.20;;;;;;;;;;4974563;28;20660;-61
2023/03/03 11:51:22;;;;;;;;;;;;;;;;;;4975038;28;20847;-61
2023/03/03 11:53:51;;;;;;;2.47;1.97;;;;;;;;;;4973948;28;19932;-61
2023/03/03 11:56:24;;;;;;;6.07;1.60;;;;;;;;;;4978697;28;20288;-60
2023/03/03 11:58:53;;;;;;;1.77;1.30;;;;;;;;;;4979666;28;20279;-61
2023/03/03 12:01:20;;;;;;;1.43;1.20;;;;;;;;;;4979523;28;20256;-61
2023/03/03 12:04:02;;;;;;;2.27;1.23;;;;;;;;;;4979777;28;20613;-60
2023/03/03 12:06:47;;;;;;;1.57;1.17;;;;;;;;;;4979645;28;20259;-61
2023/03/03 12:09:32;;;;;;;2.05;1.42;;;;;;;;;;4974465;28;20355;-61
2023/03/03 12:12:16;;;;;;;1.95;1.17;;;;;;;;;;4973723;28;20031;-61
2023/03/03 12:14:49;;;;;;;17.40;2.53;;;;;;;;;;4974522;28;20027;-60
2023/03/03 12:17:22;;;;;;;1.90;1.23;;;;;;;;;;4975566;28;20260;-61
2023/03/03 12:19:48;;;;;;;11.60;1.87;;;;;;;;;;4979574;28;20416;-61
2023/03/03 12:22:33;;;;;;;1.73;1.23;;;;;;;;;;4979048;28;20652;-61
2023/03/03 12:25:08;;;;;;;2.42;1.30;;;;;;;;;;4979465;28;20756;-60
2023/03/03 12:27:34;;;;;;;16.73;2.25;;;;;;;;;;4979443;28;20019;-61
2023/03/03 12:30:13;;;;;;;5.03;1.70;;;;;;;;;;4976727;28;20031;-61
2023/03/03 12:32:49;;;;;;;1.03;0.80;;;;;;;;;;4974322;28;20423;-60
2023/03/03 12:35:25;;;;;;;5.37;1.80;;;;;;;;;;4973763;28;20260;-61
2023/03/03 12:38:10;;;;;;;1.40;1.00;;;;;;;;;;4973982;28;20671;-63
2023/03/03 12:40:52;;;;;;;4.13;2.05;;;;;;;;;;4977791;28;20272;-60
2023/03/03 12:43:31;;;;;;;8.00;1.57;;;;;;;;;;4979279;28;20030;-60
2023/03/03 12:45:58;;;;;;;12.80;3.00;;;;;;;;;;4978938;28;20747;-60
2023/03/03 12:48:30;;;;;;;3.63;2.17;;;;;;;;;;4974877;28;20257;-60
2023/03/03 12:51:01;;;;;;;3.30;2.13;;;;;;;;;;4975817;28;20275;-60
2023/03/03 12:53:27;;;;;;;3.10;2.07;;;;;;;;;;4970945;28;20265;-60
2023/03/03 12:55:57;;;;;;;4.70;2.03;;;;;;;;;;4970643;28;20269;-61
2023/03/03 12:58:43;;;;;;;1.60;1.27;;;;;;;;;;4971008;28;20253;-60
2023/03/03 13:01:29;;;;;;;4.50;1.73;;;;;;;;;;4970880;28;20253;-60
2023/03/03 13:04:00;;;;;;;1.40;1.25;;;;;;;;;;4975932;28;20392;-60
2023/03/03 13:06:29;;;;;;;2.67;1.80;;;;;;;;;;4975686;28;20035;-60
2023/03/03 13:09:08;;;;;;;3.63;1.90;;;;;;;;;;4975252;28;20256;-60
2023/03/03 13:11:41;;;;;;;3.10;1.70;;;;;;;;;;4975632;28;20651;-60
2023/03/03 13:14:10;;;;;;;2.77;2.03;;;;;;;;;;4973658;28;20619;-60
2023/03/03 13:16:57;;;;;;;2.23;1.47;;;;;;;;;;4970491;28;20272;-60
2023/03/03 13:19:27;;;;;;;2.17;1.43;;;;;;;;;;4939925;28;20613;-60
2023/03/03 13:22:15;;;;;;;2.43;1.87;;;;;;;;;;4970410;28;20417;-60
2023/03/03 13:24:44;;;;;;;3.00;1.37;;;;;;;;;;4973077;28;20285;-60
2023/03/03 13:27:16;;;;;;;5.73;3.67;;;;;;;;;;4974951;28;20260;-62
2023/03/03 13:29:44;;;;;;;6.77;2.67;;;;;;;;;;4975460;28;20560;-61
2023/03/03 13:32:19;;;;;;;4.33;1.90;;;;;;;;;;4974781;28;20632;-62
2023/03/03 13:34:59;;;;;;;2.20;1.70;;;;;;;;;;4975306;28;20731;-63
2023/03/03 13:37:38;;;;;;;14.63;3.27;;;;;;;;;;4970352;28;20331;-60
2023/03/03 13:40:17;;;;;;;9.47;2.93;;;;;;;;;;4970021;28;20327;-60
2023/03/03 13:43:02;;;;;;;9.80;2.70;;;;;;;;;;4969861;28;20265;-61
2023/03/03 13:45:45;;;;;;;13.07;2.95;;;;;;;;;;4969747;28;20736;-61
2023/03/03 13:48:30;;;;;;;15.53;2.83;;;;;;;;;;4974680;28;20505;-60
2023/03/03 13:50:58;;;;;;;6.77;2.37;;;;;;;;;;4974887;28;20265;-63
2023/03/03 13:53:30;;;;;;;3.40;2.20;;;;;;;;;;4975012;28;20023;-63
2023/03/03 13:55:57;;;;;;;2.47;1.67;;;;;;;;;;4975067;28;20389;-63
2023/03/03 13:58:37;;;;;;;5.23;2.20;;;;;;;;;;4973313;28;20482;-63
2023/03/03 14:01:06;;;;;;;32.07;2.50;;;;;;;;;;4969566;28;20035;-63
2023/03/03 14:03:45;;;;;;;13.10;3.17;;;;;;;;;;4969221;28;20157;-63
2023/03/03 14:06:16;;;;;;;12.30;2.73;;;;;;;;;;4969585;28;20154;-63
2023/03/03 14:08:48;;;;;;;26.73;2.97;;;;;;;;;;4970780;28;20114;-63
2023/03/03 14:11:35;;;;;;;15.23;2.10;;;;;;;;;;4974228;28;20030;-60
2023/03/03 14:14:14;;;;;;;7.20;2.60;;;;;;;;;;4974530;28;20025;-61
2023/03/03 14:16:52;;;;;;;17.57;2.93;;;;;;;;;;4974520;28;20034;-60
2023/03/03 14:19:24;;;;;;;4.97;2.53;;;;;;;;;;4974395;28;20057;-60
2023/03/03 14:22:15;;;;;;;2.63;1.43;;;;;;;;;;4969681;28;20083;-63
2023/03/03 14:24:56;;;;;;;2.60;1.13;;;;;;;;;;4968755;28;20029;-63
2023/03/03 14:27:25;;;;;;;2.40;1.60;;;;;;;;;;4969189;28;20513;-63
2023/03/03 14:29:51;;;;;;;3.83;2.03;;;;;;;;;;4969043;28;20529;-63
2023/03/03 14:32:23;;;;;;;3.27;1.80;;;;;;;;;;4973633;28;20042;-64
2023/03/03 14:34:59;;;;;;;5.53;2.37;;;;;;;;;;4973755;28;20029;-63
2023/03/03 14:37:28;;;;;;;2.77;1.80;;;;;;;;;;4974178;28;20069;-64
2023/03/03 14:40:03;;;;;;;2.00;1.37;;;;;;;;;;4974213;28;20019;-64
2023/03/03 14:42:39;;;;;;;4.00;2.00;;;;;;;;;;4973812;28;20023;-64
2023/03/03 14:45:26;;;;;;;9.07;3.73;;;;;;;;;;4968811;28;20554;-62
2023/03/03 14:47:53;;;;;;;8.63;3.70;;;;;;;;;;4958763;28;20089;-62
2023/03/03 14:50:39;;;;;;;10.67;3.53;;;;;;;;;;4968429;28;20128;-62
2023/03/03 14:53:15;;;;;;;9.37;2.60;;;;;;;;;;4969885;28;20034;-62
2023/03/03 14:55:43;;;;;;;4.43;2.77;;;;;;;;;;4973803;28;20456;-62
2023/03/03 14:58:30;;;;;;;5.47;2.80;;;;;;;;;;4973745;28;20034;-64
2023/03/03 15:01:20;;;;;;;11.27;3.27;;;;;;;;;;4973773;28;20026;-64
2023/03/03 15:03:51;;;;;;;6.00;3.30;;;;;;;;;;4973861;28;20033;-64
2023/03/03 15:06:29;;;;;;;5.10;2.80;;;;;;;;;;4969972;28;20015;-64